sensor_id;sensor_type;location;lat;lon;timestamp;temperature;humidity
66610;DHT22;53468;48.276;14.416;2023-10-31T00:00:19;16.00;99.90
66610;DHT22;53468;48.276;14.416;2023-10-31T00:05:21;16.50;99.90
66610;DHT22;53468;48.276;14.416;2023-10-31T00:10:24;16.50;99.90
66610;DHT22;53468;48.276;14.416;2023-10-31T00:15:26;16.40;99.90
66610;DHT22;53468;48.276;14.416;2023-10-31T00:20:31;16.20;99.90
66610;DHT22;53468;48.276;14.416;2023-10-31T00:25:34;15.90;99.90
66610;DHT22;53468;48.276;14.416;2023-10-31T00:30:36;15.60;99.90
66610;DHT22;53468;48.276;14.416;2023-10-31T00:35:41;15.20;99.90
66610;DHT22;53468;48.276;14.416;2023-10-31T00:40:44;14.90;99.90
66610;DHT22;53468;48.276;14.416;2023-10-31T00:45:46;14.80;99.90
66610;DHT22;53468;48.276;14.416;2023-10-31T00:50:48;14.60;99.90
66610;DHT22;53468;48.276;14.416;2023-10-31T00:55:54;14.60;99.90
66610;DHT22;53468;48.276;14.416;2023-10-31T01:00:56;14.50;99.90
66610;DHT22;53468;48.276;14.416;2023-10-31T01:05:58;14.50;99.90
66610;DHT22;53468;48.276;14.416;2023-10-31T01:11:02;14.40;99.90
66610;DHT22;53468;48.276;14.416;2023-10-31T01:16:08;14.30;99.90
66610;DHT22;53468;48.276;14.416;2023-10-31T01:21:10;14.20;99.90
66610;DHT22;53468;48.276;14.416;2023-10-31T01:26:13;14.00;99.90
66610;DHT22;53468;48.276;14.416;2023-10-31T01:31:15;13.80;99.90
66610;DHT22;53468;48.276;14.416;2023-10-31T01:36:17;13.70;99.90
66610;DHT22;53468;48.276;14.416;2023-10-31T01:41:21;13.50;99.90
66610;DHT22;53468;48.276;14.416;2023-10-31T01:46:23;13.40;99.90
66610;DHT22;53468;48.276;14.416;2023-10-31T01:51:28;13.30;99.90
66610;DHT22;53468;48.276;14.416;2023-10-31T01:56:31;13.20;99.90
66610;DHT22;53468;48.276;14.416;2023-10-31T02:01:37;13.10;99.90
66610;DHT22;53468;48.276;14.416;2023-10-31T02:06:40;13.00;99.90
66610;DHT22;53468;48.276;14.416;2023-10-31T02:11:44;12.90;99.90
66610;DHT22;53468;48.276;14.416;2023-10-31T02:16:46;12.90;99.90
66610;DHT22;53468;48.276;14.416;2023-10-31T02:22:01;12.90;99.90
66610;DHT22;53468;48.276;14.416;2023-10-31T02:27:03;12.80;99.90
66610;DHT22;53468;48.276;14.416;2023-10-31T02:32:05;12.80;99.90
66610;DHT22;53468;48.276;14.416;2023-10-31T02:37:10;12.80;99.90
66610;DHT22;53468;48.276;14.416;2023-10-31T02:42:12;12.80;99.90
66610;DHT22;53468;48.276;14.416;2023-10-31T02:47:14;12.80;99.90
66610;DHT22;53468;48.276;14.416;2023-10-31T02:52:17;12.80;99.90
66610;DHT22;53468;48.276;14.416;2023-10-31T02:57:19;12.80;99.90
66610;DHT22;53468;48.276;14.416;2023-10-31T03:02:21;12.80;99.90
66610;DHT22;53468;48.276;14.416;2023-10-31T03:07:27;12.80;99.90
66610;DHT22;53468;48.276;14.416;2023-10-31T03:12:29;12.80;99.90
66610;DHT22;53468;48.276;14.416;2023-10-31T03:17:31;12.70;99.90
66610;DHT22;53468;48.276;14.416;2023-10-31T03:22:35;12.80;99.90
66610;DHT22;53468;48.276;14.416;2023-10-31T03:27:39;12.80;99.90
66610;DHT22;53468;48.276;14.416;2023-10-31T03:32:40;12.80;99.90
66610;DHT22;53468;48.276;14.416;2023-10-31T03:37:44;12.80;99.90
66610;DHT22;53468;48.276;14.416;2023-10-31T03:42:46;12.70;99.90
66610;DHT22;53468;48.276;14.416;2023-10-31T03:47:48;12.70;99.90
66610;DHT22;53468;48.276;14.416;2023-10-31T03:52:51;12.70;99.90
66610;DHT22;53468;48.276;14.416;2023-10-31T03:57:53;12.70;99.90
66610;DHT22;53468;48.276;14.416;2023-10-31T04:02:55;12.60;99.90
66610;DHT22;53468;48.276;14.416;2023-10-31T04:07:59;12.60;99.90
66610;DHT22;53468;48.276;14.416;2023-10-31T04:13:01;12.50;99.90
66610;DHT22;53468;48.276;14.416;2023-10-31T04:18:03;12.40;99.90
66610;DHT22;53468;48.276;14.416;2023-10-31T04:23:07;12.00;99.90
66610;DHT22;53468;48.276;14.416;2023-10-31T04:28:09;11.90;99.90
66610;DHT22;53468;48.276;14.416;2023-10-31T04:33:11;11.70;99.90
66610;DHT22;53468;48.276;14.416;2023-10-31T04:38:14;11.50;99.90
66610;DHT22;53468;48.276;14.416;2023-10-31T04:43:16;11.50;99.90
66610;DHT22;53468;48.276;14.416;2023-10-31T04:48:18;11.50;99.90
66610;DHT22;53468;48.276;14.416;2023-10-31T04:53:22;11.50;99.90
66610;DHT22;53468;48.276;14.416;2023-10-31T04:58:24;11.40;99.90
66610;DHT22;53468;48.276;14.416;2023-10-31T05:03:26;11.50;99.90
66610;DHT22;53468;48.276;14.416;2023-10-31T05:08:30;11.40;99.90
66610;DHT22;53468;48.276;14.416;2023-10-31T05:13:32;11.40;99.90
66610;DHT22;53468;48.276;14.416;2023-10-31T05:18:36;11.40;99.90
66610;DHT22;53468;48.276;14.416;2023-10-31T05:23:40;11.30;99.90
66610;DHT22;53468;48.276;14.416;2023-10-31T05:28:42;11.30;99.90
66610;DHT22;53468;48.276;14.416;2023-10-31T05:33:44;11.30;99.90
66610;DHT22;53468;48.276;14.416;2023-10-31T05:38:47;11.20;99.90
66610;DHT22;53468;48.276;14.416;2023-10-31T05:43:51;11.30;99.90
66610;DHT22;53468;48.276;14.416;2023-10-31T05:48:53;11.30;99.90
66610;DHT22;53468;48.276;14.416;2023-10-31T05:53:56;11.30;99.90
66610;DHT22;53468;48.276;14.416;2023-10-31T05:58:58;11.30;99.90
66610;DHT22;53468;48.276;14.416;2023-10-31T06:04:00;11.30;99.90
66610;DHT22;53468;48.276;14.416;2023-10-31T06:09:04;11.30;99.90
66610;DHT22;53468;48.276;14.416;2023-10-31T06:14:06;11.30;99.90
66610;DHT22;53468;48.276;14.416;2023-10-31T06:19:08;11.20;99.90
66610;DHT22;53468;48.276;14.416;2023-10-31T06:24:11;11.20;99.90
66610;DHT22;53468;48.276;14.416;2023-10-31T06:29:13;11.20;99.90
66610;DHT22;53468;48.276;14.416;2023-10-31T06:34:15;11.20;99.90
66610;DHT22;53468;48.276;14.416;2023-10-31T06:39:19;11.30;99.90
66610;DHT22;53468;48.276;14.416;2023-10-31T06:44:23;11.30;99.90
66610;DHT22;53468;48.276;14.416;2023-10-31T06:49:25;11.30;99.90
66610;DHT22;53468;48.276;14.416;2023-10-31T06:54:31;11.30;99.90
66610;DHT22;53468;48.276;14.416;2023-10-31T06:59:34;11.30;99.90
66610;DHT22;53468;48.276;14.416;2023-10-31T07:04:36;11.40;99.90
66610;DHT22;53468;48.276;14.416;2023-10-31T07:09:40;11.50;99.90
66610;DHT22;53468;48.276;14.416;2023-10-31T07:14:41;11.50;99.90
66610;DHT22;53468;48.276;14.416;2023-10-31T07:19:44;11.60;99.90
66610;DHT22;53468;48.276;14.416;2023-10-31T07:24:48;11.60;99.90
66610;DHT22;53468;48.276;14.416;2023-10-31T07:29:50;11.50;99.90
66610;DHT22;53468;48.276;14.416;2023-10-31T07:34:52;11.60;99.90
66610;DHT22;53468;48.276;14.416;2023-10-31T07:39:55;11.60;99.90
66610;DHT22;53468;48.276;14.416;2023-10-31T07:44:57;11.60;99.90
66610;DHT22;53468;48.276;14.416;2023-10-31T07:49:59;11.70;99.90
66610;DHT22;53468;48.276;14.416;2023-10-31T07:55:03;11.70;99.90
66610;DHT22;53468;48.276;14.416;2023-10-31T08:00:09;11.60;99.90
66610;DHT22;53468;48.276;14.416;2023-10-31T08:05:12;11.70;99.90
66610;DHT22;53468;48.276;14.416;2023-10-31T08:10:16;11.80;99.90
66610;DHT22;53468;48.276;14.416;2023-10-31T08:15:18;11.90;99.90
66610;DHT22;53468;48.276;14.416;2023-10-31T08:20:20;11.90;99.90
66610;DHT22;53468;48.276;14.416;2023-10-31T08:25:23;11.90;99.90
66610;DHT22;53468;48.276;14.416;2023-10-31T08:30:25;11.90;99.90
66610;DHT22;53468;48.276;14.416;2023-10-31T08:35:27;12.00;99.90
66610;DHT22;53468;48.276;14.416;2023-10-31T08:40:30;12.00;99.90
66610;DHT22;53468;48.276;14.416;2023-10-31T08:45:32;12.00;99.90
66610;DHT22;53468;48.276;14.416;2023-10-31T08:50:34;12.00;99.90
66610;DHT22;53468;48.276;14.416;2023-10-31T08:55:38;12.10;99.90
66610;DHT22;53468;48.276;14.416;2023-10-31T09:00:40;12.00;99.90
66610;DHT22;53468;48.276;14.416;2023-10-31T09:05:42;12.00;99.90
66610;DHT22;53468;48.276;14.416;2023-10-31T09:10:47;12.00;99.90
66610;DHT22;53468;48.276;14.416;2023-10-31T09:15:49;11.80;99.90
66610;DHT22;53468;48.276;14.416;2023-10-31T09:20:51;11.80;99.90
66610;DHT22;53468;48.276;14.416;2023-10-31T09:25:55;11.70;99.90
66610;DHT22;53468;48.276;14.416;2023-10-31T09:30:57;11.70;99.90
66610;DHT22;53468;48.276;14.416;2023-10-31T09:36:00;11.60;99.90
66610;DHT22;53468;48.276;14.416;2023-10-31T09:41:05;11.50;99.90
66610;DHT22;53468;48.276;14.416;2023-10-31T09:46:07;11.40;99.90
66610;DHT22;53468;48.276;14.416;2023-10-31T09:51:10;11.40;99.90
66610;DHT22;53468;48.276;14.416;2023-10-31T09:56:14;11.40;99.90
66610;DHT22;53468;48.276;14.416;2023-10-31T10:01:17;11.40;99.90
66610;DHT22;53468;48.276;14.416;2023-10-31T10:06:20;11.30;99.90
66610;DHT22;53468;48.276;14.416;2023-10-31T10:11:27;11.20;99.90
66610;DHT22;53468;48.276;14.416;2023-10-31T10:16:30;11.20;99.90
66610;DHT22;53468;48.276;14.416;2023-10-31T10:21:46;11.10;99.90
66610;DHT22;53468;48.276;14.416;2023-10-31T10:26:51;11.10;99.90
66610;DHT22;53468;48.276;14.416;2023-10-31T10:31:53;11.10;99.90
66610;DHT22;53468;48.276;14.416;2023-10-31T10:36:55;11.00;99.90
66610;DHT22;53468;48.276;14.416;2023-10-31T10:42:01;11.10;99.90
66610;DHT22;53468;48.276;14.416;2023-10-31T10:47:05;11.10;99.90
66610;DHT22;53468;48.276;14.416;2023-10-31T10:52:16;11.00;99.90
66610;DHT22;53468;48.276;14.416;2023-10-31T10:57:30;11.00;99.90
66610;DHT22;53468;48.276;14.416;2023-10-31T11:02:36;11.00;99.90
66610;DHT22;53468;48.276;14.416;2023-10-31T11:07:38;10.90;99.90
66610;DHT22;53468;48.276;14.416;2023-10-31T11:12:42;10.90;99.90
66610;DHT22;53468;48.276;14.416;2023-10-31T11:17:46;10.90;99.90
66610;DHT22;53468;48.276;14.416;2023-10-31T11:22:55;10.80;99.90
66610;DHT22;53468;48.276;14.416;2023-10-31T11:28:11;10.80;99.90
66610;DHT22;53468;48.276;14.416;2023-10-31T11:33:14;10.80;99.90
66610;DHT22;53468;48.276;14.416;2023-10-31T11:38:30;10.70;99.90
66610;DHT22;53468;48.276;14.416;2023-10-31T11:43:53;10.80;99.90
66610;DHT22;53468;48.276;14.416;2023-10-31T11:48:56;10.80;99.90
66610;DHT22;53468;48.276;14.416;2023-10-31T11:54:01;10.80;99.90
66610;DHT22;53468;48.276;14.416;2023-10-31T11:59:05;10.80;99.90
66610;DHT22;53468;48.276;14.416;2023-10-31T12:04:08;10.90;99.90
66610;DHT22;53468;48.276;14.416;2023-10-31T12:09:11;10.90;99.90
66610;DHT22;53468;48.276;14.416;2023-10-31T12:14:18;10.90;99.90
66610;DHT22;53468;48.276;14.416;2023-10-31T12:19:21;10.90;99.90
66610;DHT22;53468;48.276;14.416;2023-10-31T12:24:23;11.20;99.90
66610;DHT22;53468;48.276;14.416;2023-10-31T12:29:26;11.40;99.90
66610;DHT22;53468;48.276;14.416;2023-10-31T12:34:28;11.50;99.90
66610;DHT22;53468;48.276;14.416;2023-10-31T12:39:31;11.60;99.90
66610;DHT22;53468;48.276;14.416;2023-10-31T12:44:36;11.40;99.90
66610;DHT22;53468;48.276;14.416;2023-10-31T12:49:38;11.30;99.90
66610;DHT22;53468;48.276;14.416;2023-10-31T12:54:40;11.20;99.90
66610;DHT22;53468;48.276;14.416;2023-10-31T12:59:44;11.20;99.90
66610;DHT22;53468;48.276;14.416;2023-10-31T13:04:46;11.10;99.90
66610;DHT22;53468;48.276;14.416;2023-10-31T13:09:48;11.00;99.90
66610;DHT22;53468;48.276;14.416;2023-10-31T13:14:55;11.10;99.90
66610;DHT22;53468;48.276;14.416;2023-10-31T13:19:57;11.10;99.90
66610;DHT22;53468;48.276;14.416;2023-10-31T13:24:59;11.10;99.90
66610;DHT22;53468;48.276;14.416;2023-10-31T13:30:07;11.20;99.90
66610;DHT22;53468;48.276;14.416;2023-10-31T13:35:09;11.10;99.90
66610;DHT22;53468;48.276;14.416;2023-10-31T13:40:13;11.00;99.90
66610;DHT22;53468;48.276;14.416;2023-10-31T13:45:16;11.00;99.90
66610;DHT22;53468;48.276;14.416;2023-10-31T13:50:19;10.90;99.90
66610;DHT22;53468;48.276;14.416;2023-10-31T13:55:21;10.90;99.90
66610;DHT22;53468;48.276;14.416;2023-10-31T14:00:25;10.90;99.90
66610;DHT22;53468;48.276;14.416;2023-10-31T14:05:27;10.90;99.90
66610;DHT22;53468;48.276;14.416;2023-10-31T14:10:29;10.90;99.90
66610;DHT22;53468;48.276;14.416;2023-10-31T14:15:33;10.80;99.90
66610;DHT22;53468;48.276;14.416;2023-10-31T14:20:35;10.80;99.90
66610;DHT22;53468;48.276;14.416;2023-10-31T14:25:37;10.80;99.90
66610;DHT22;53468;48.276;14.416;2023-10-31T14:30:41;10.70;99.90
66610;DHT22;53468;48.276;14.416;2023-10-31T14:35:45;10.70;99.90
66610;DHT22;53468;48.276;14.416;2023-10-31T14:40:47;10.80;99.90
66610;DHT22;53468;48.276;14.416;2023-10-31T14:45:51;10.70;99.90
66610;DHT22;53468;48.276;14.416;2023-10-31T14:50:54;10.70;99.90
66610;DHT22;53468;48.276;14.416;2023-10-31T14:55:57;10.70;99.90
66610;DHT22;53468;48.276;14.416;2023-10-31T15:01:01;10.70;99.90
66610;DHT22;53468;48.276;14.416;2023-10-31T15:06:05;10.70;99.90
66610;DHT22;53468;48.276;14.416;2023-10-31T15:11:08;10.70;99.90
66610;DHT22;53468;48.276;14.416;2023-10-31T15:16:13;10.70;99.90
66610;DHT22;53468;48.276;14.416;2023-10-31T15:21:15;10.70;99.90
66610;DHT22;53468;48.276;14.416;2023-10-31T15:26:17;10.70;99.90
66610;DHT22;53468;48.276;14.416;2023-10-31T15:31:21;10.80;99.90
66610;DHT22;53468;48.276;14.416;2023-10-31T15:36:23;10.80;99.90
66610;DHT22;53468;48.276;14.416;2023-10-31T15:41:25;10.80;99.90
66610;DHT22;53468;48.276;14.416;2023-10-31T15:46:28;10.80;99.90
66610;DHT22;53468;48.276;14.416;2023-10-31T15:51:30;10.80;99.90
66610;DHT22;53468;48.276;14.416;2023-10-31T15:56:33;10.70;99.90
66610;DHT22;53468;48.276;14.416;2023-10-31T16:01:36;10.70;99.90
66610;DHT22;53468;48.276;14.416;2023-10-31T16:06:38;10.70;99.90
66610;DHT22;53468;48.276;14.416;2023-10-31T16:11:41;10.70;99.90
66610;DHT22;53468;48.276;14.416;2023-10-31T16:16:44;10.70;99.90
66610;DHT22;53468;48.276;14.416;2023-10-31T16:21:49;10.70;99.90
66610;DHT22;53468;48.276;14.416;2023-10-31T16:26:51;10.70;99.90
66610;DHT22;53468;48.276;14.416;2023-10-31T16:31:54;10.70;99.90
66610;DHT22;53468;48.276;14.416;2023-10-31T16:36:56;10.70;99.90
66610;DHT22;53468;48.276;14.416;2023-10-31T16:41:59;10.60;99.90
66610;DHT22;53468;48.276;14.416;2023-10-31T16:47:02;10.70;99.90
66610;DHT22;53468;48.276;14.416;2023-10-31T16:52:05;10.60;99.90
66610;DHT22;53468;48.276;14.416;2023-10-31T16:57:07;10.70;99.90
66610;DHT22;53468;48.276;14.416;2023-10-31T17:02:11;10.60;99.90
66610;DHT22;53468;48.276;14.416;2023-10-31T17:07:14;10.60;99.90
66610;DHT22;53468;48.276;14.416;2023-10-31T17:12:16;10.60;99.90
66610;DHT22;53468;48.276;14.416;2023-10-31T17:17:19;10.60;99.90
66610;DHT22;53468;48.276;14.416;2023-10-31T17:22:21;10.60;99.90
66610;DHT22;53468;48.276;14.416;2023-10-31T17:27:23;10.60;99.90
66610;DHT22;53468;48.276;14.416;2023-10-31T17:32:27;10.70;99.90
66610;DHT22;53468;48.276;14.416;2023-10-31T17:37:29;10.60;99.90
66610;DHT22;53468;48.276;14.416;2023-10-31T17:42:32;10.50;99.90
66610;DHT22;53468;48.276;14.416;2023-10-31T17:47:37;10.40;99.90
66610;DHT22;53468;48.276;14.416;2023-10-31T17:52:39;10.30;99.90
66610;DHT22;53468;48.276;14.416;2023-10-31T17:57:41;10.30;99.90
66610;DHT22;53468;48.276;14.416;2023-10-31T18:02:45;10.30;99.90
66610;DHT22;53468;48.276;14.416;2023-10-31T18:07:47;10.30;99.90
66610;DHT22;53468;48.276;14.416;2023-10-31T18:12:50;10.30;99.90
66610;DHT22;53468;48.276;14.416;2023-10-31T18:17:53;10.40;99.90
66610;DHT22;53468;48.276;14.416;2023-10-31T18:22:55;10.40;99.90
66610;DHT22;53468;48.276;14.416;2023-10-31T18:27:58;10.40;99.90
66610;DHT22;53468;48.276;14.416;2023-10-31T18:33:01;10.40;99.90
66610;DHT22;53468;48.276;14.416;2023-10-31T18:38:04;10.40;99.90
66610;DHT22;53468;48.276;14.416;2023-10-31T18:43:11;10.40;99.90
66610;DHT22;53468;48.276;14.416;2023-10-31T18:48:14;10.40;99.90
66610;DHT22;53468;48.276;14.416;2023-10-31T18:53:17;10.40;99.90
66610;DHT22;53468;48.276;14.416;2023-10-31T18:58:19;10.50;99.90
66610;DHT22;53468;48.276;14.416;2023-10-31T19:03:22;10.50;99.90
66610;DHT22;53468;48.276;14.416;2023-10-31T19:08:24;10.50;99.90
66610;DHT22;53468;48.276;14.416;2023-10-31T19:13:27;10.60;99.90
66610;DHT22;53468;48.276;14.416;2023-10-31T19:18:31;10.60;99.90
66610;DHT22;53468;48.276;14.416;2023-10-31T19:23:33;10.60;99.90
66610;DHT22;53468;48.276;14.416;2023-10-31T19:28:35;10.60;99.90
66610;DHT22;53468;48.276;14.416;2023-10-31T19:33:40;10.60;99.90
66610;DHT22;53468;48.276;14.416;2023-10-31T19:38:43;10.60;99.90
66610;DHT22;53468;48.276;14.416;2023-10-31T19:43:45;10.60;99.90
66610;DHT22;53468;48.276;14.416;2023-10-31T19:48:48;10.60;99.90
66610;DHT22;53468;48.276;14.416;2023-10-31T19:53:50;10.60;99.90
66610;DHT22;53468;48.276;14.416;2023-10-31T19:58:52;10.60;99.90
66610;DHT22;53468;48.276;14.416;2023-10-31T20:03:58;10.70;99.90
66610;DHT22;53468;48.276;14.416;2023-10-31T20:09:00;10.70;99.90
66610;DHT22;53468;48.276;14.416;2023-10-31T20:14:03;10.60;99.90
66610;DHT22;53468;48.276;14.416;2023-10-31T20:19:06;10.60;99.90
66610;DHT22;53468;48.276;14.416;2023-10-31T20:24:10;10.60;99.90
66610;DHT22;53468;48.276;14.416;2023-10-31T20:29:12;10.60;99.90
66610;DHT22;53468;48.276;14.416;2023-10-31T20:34:17;10.50;99.90
66610;DHT22;53468;48.276;14.416;2023-10-31T20:39:19;10.40;99.90
66610;DHT22;53468;48.276;14.416;2023-10-31T20:44:21;10.40;99.90
66610;DHT22;53468;48.276;14.416;2023-10-31T20:49:25;10.50;99.90
66610;DHT22;53468;48.276;14.416;2023-10-31T20:54:27;10.50;99.90
66610;DHT22;53468;48.276;14.416;2023-10-31T20:59:29;10.50;99.90
66610;DHT22;53468;48.276;14.416;2023-10-31T21:04:33;10.60;99.90
66610;DHT22;53468;48.276;14.416;2023-10-31T21:09:39;10.60;99.90
66610;DHT22;53468;48.276;14.416;2023-10-31T21:14:41;10.70;99.90
66610;DHT22;53468;48.276;14.416;2023-10-31T21:19:44;10.80;99.90
66610;DHT22;53468;48.276;14.416;2023-10-31T21:24:49;10.90;99.90
66610;DHT22;53468;48.276;14.416;2023-10-31T21:29:51;10.90;99.90
66610;DHT22;53468;48.276;14.416;2023-10-31T21:34:55;11.00;99.90
66610;DHT22;53468;48.276;14.416;2023-10-31T21:39:57;11.00;99.90
66610;DHT22;53468;48.276;14.416;2023-10-31T21:44:59;11.10;99.90
66610;DHT22;53468;48.276;14.416;2023-10-31T21:50:03;11.10;99.90
66610;DHT22;53468;48.276;14.416;2023-10-31T21:55:06;11.10;99.90
66610;DHT22;53468;48.276;14.416;2023-10-31T22:00:12;11.20;99.90
66610;DHT22;53468;48.276;14.416;2023-10-31T22:05:16;11.20;99.90
66610;DHT22;53468;48.276;14.416;2023-10-31T22:10:18;11.10;99.90
66610;DHT22;53468;48.276;14.416;2023-10-31T22:15:22;11.10;99.90
66610;DHT22;53468;48.276;14.416;2023-10-31T22:20:27;11.10;99.90
66610;DHT22;53468;48.276;14.416;2023-10-31T22:25:29;11.10;99.90
66610;DHT22;53468;48.276;14.416;2023-10-31T22:30:31;11.10;99.90
66610;DHT22;53468;48.276;14.416;2023-10-31T22:35:35;11.10;99.90
66610;DHT22;53468;48.276;14.416;2023-10-31T22:40:38;11.20;99.90
66610;DHT22;53468;48.276;14.416;2023-10-31T22:45:40;11.10;99.90
66610;DHT22;53468;48.276;14.416;2023-10-31T22:50:45;11.10;99.90
66610;DHT22;53468;48.276;14.416;2023-10-31T22:55:47;11.00;99.90
66610;DHT22;53468;48.276;14.416;2023-10-31T23:00:49;11.00;99.90
66610;DHT22;53468;48.276;14.416;2023-10-31T23:05:53;11.00;99.90
66610;DHT22;53468;48.276;14.416;2023-10-31T23:10:56;11.00;99.90
66610;DHT22;53468;48.276;14.416;2023-10-31T23:16:00;10.90;99.90
66610;DHT22;53468;48.276;14.416;2023-10-31T23:21:07;10.80;99.90
66610;DHT22;53468;48.276;14.416;2023-10-31T23:26:09;10.80;99.90
66610;DHT22;53468;48.276;14.416;2023-10-31T23:31:11;10.80;99.90
66610;DHT22;53468;48.276;14.416;2023-10-31T23:36:16;10.80;99.90
66610;DHT22;53468;48.276;14.416;2023-10-31T23:41:18;10.80;99.90
66610;DHT22;53468;48.276;14.416;2023-10-31T23:46:20;10.80;99.90
66610;DHT22;53468;48.276;14.416;2023-10-31T23:51:24;10.80;99.90
66610;DHT22;53468;48.276;14.416;2023-10-31T23:56:26;10.80;99.90
